»·PEaware :: BAW61T KTPA-EGKK

BAW61T :: KTPA-EGKK

FLIGHT INFORMATION

Flight Status: Arrived
Operator:
British Airways
More flights by this operator :: More flights under this callsign
Pilot: Hunter B. (17602)
Aircraft: BOEING 777-200
(B772)
More flights by this aircraft type
Origin: KTPA Tampa Intl
United States
Destination: EGKK Gatwick
United Kingdom
More flights between these airports :: More routes between these airports
Route: NITTS350035 CARRD DUNKN J75 CAE J51 OTT/N0466F350 J42 GRACO/N0474F370 J42 DAVYS/N0474F390 J42 RBV J62 ACK TUSKY/M082F390 N377A ALLRY/N0467F390 GISTI NORLA UM140 MERLY L149 DIDEL N513 ELRIP N17 OTMET OTMET1G
File this flight plan on PilotEdge
Remarks: PBN / A1B1C1D1L1O1S2 DOF / 180117 REG / N712SB EET / KZJX0000 KZDC0051 KZNY0135 KZBW0142 CZQM0221 CZQX0300 EGGX0503 EISN0601 EGTT0635 OPR / BAW PER / D RALT / LPLA EIKN RMK / TCAS SIMBRIEF
Altitude:
(Current/Filed)
37,000ft
Speed:
(Current/Filed)
476kts
Departed: 17-Jan-18 03:20 PM
Arrived: 17-Jan-18 10:25 PM
Distance/Time
Traveled:
3837nm/7:05
Distance/Time
To Go:
Arrived

Flight Plot

Page will automatically refresh every two minutes.

Flight plan parsing failed; only flown route is shown


Map Options




Map Legend


Flown Route
Filed Route
Departure Airport
Arrival Airport
Navaid (VOR, NDB)
Fix

Horizontal Profiles

Position Reports

Time Latitude Longitude Heading Altitude Ground
Speed
17-Jan-18 15:12 27.975963 -82.537106 269 39ft 0kts
17-Jan-18 15:13 27.975963 -82.537106 269 39ft 0kts
17-Jan-18 15:14 27.975963 -82.537106 269 39ft 0kts
17-Jan-18 15:15 27.975963 -82.537106 269 39ft 0kts
17-Jan-18 15:16 27.975963 -82.537106 269 39ft 0kts
17-Jan-18 15:17 27.975963 -82.537106 269 39ft 0kts
17-Jan-18 15:18 27.975963 -82.537106 269 39ft 0kts
17-Jan-18 15:19 27.975963 -82.537106 269 39ft 0kts
17-Jan-18 15:20 27.976060 -82.539118 288 39ft 11kts
17-Jan-18 15:21 27.974676 -82.540146 182 39ft 13kts
17-Jan-18 15:22 27.971435 -82.540296 181 39ft 11kts
17-Jan-18 15:23 27.967255 -82.540482 182 39ft 14kts
17-Jan-18 15:24 27.963690 -82.540691 214 39ft 11kts
17-Jan-18 15:25 27.964928 -82.542360 3 39ft 17kts
17-Jan-18 15:26 28.002463 -82.540642 0 2489ft 196kts
17-Jan-18 15:27 28.066074 -82.549396 346 6057ft 250kts
17-Jan-18 15:28 28.138269 -82.563903 344 10245ft 284kts
17-Jan-18 15:29 28.227295 -82.577728 352 12802ft 370kts
17-Jan-18 15:30 28.338017 -82.579986 352 16173ft 415kts
17-Jan-18 15:31 28.457202 -82.583100 351 19712ft 441kts
17-Jan-18 15:32 28.583345 -82.586278 351 22879ft 466kts
17-Jan-18 15:33 28.715923 -82.592729 345 25823ft 483kts
17-Jan-18 15:34 28.851668 -82.613438 342 28441ft 504kts
17-Jan-18 15:35 28.993453 -82.633589 342 30852ft 521kts
17-Jan-18 15:36 29.137621 -82.653727 341 33419ft 521kts
17-Jan-18 15:37 29.281594 -82.673987 340 35500ft 523kts
17-Jan-18 15:38 29.426509 -82.693726 343 37221ft 532kts
17-Jan-18 15:39 29.577626 -82.692655 349 37390ft 541kts
17-Jan-18 15:40 29.721910 -82.691304 348 37389ft 540kts
17-Jan-18 15:41 29.871960 -82.690376 348 37393ft 540kts
17-Jan-18 15:42 30.022422 -82.689756 348 37394ft 540kts
17-Jan-18 15:43 30.172403 -82.688452 348 37398ft 539kts
17-Jan-18 15:44 30.322222 -82.687553 348 37403ft 538kts
17-Jan-18 15:45 30.472349 -82.686745 351 37402ft 543kts
17-Jan-18 15:46 30.622440 -82.631891 19 37394ft 584kts
17-Jan-18 15:47 30.770783 -82.557732 15 37392ft 579kts
17-Jan-18 15:48 30.919326 -82.485021 16 37358ft 580kts
17-Jan-18 15:49 31.067999 -82.412285 15 37356ft 580kts
17-Jan-18 15:50 31.212340 -82.341909 15 37366ft 579kts
17-Jan-18 15:51 31.360887 -82.269496 15 37370ft 579kts
17-Jan-18 15:52 31.509402 -82.196768 15 37366ft 579kts
17-Jan-18 15:53 31.658449 -82.123476 15 37367ft 580kts
17-Jan-18 15:54 31.807209 -82.050214 15 37363ft 581kts
17-Jan-18 15:55 31.956042 -81.976415 15 37357ft 581kts
17-Jan-18 15:56 32.105830 -81.904486 14 37358ft 580kts
17-Jan-18 15:57 32.255357 -81.833269 14 37358ft 580kts
17-Jan-18 15:58 32.404840 -81.762040 14 37347ft 580kts
17-Jan-18 15:59 32.554734 -81.690290 14 37346ft 579kts
17-Jan-18 16:00 32.704025 -81.618464 15 37341ft 579kts
17-Jan-18 16:01 32.847141 -81.549285 15 37337ft 579kts
17-Jan-18 16:02 32.996692 -81.476669 15 37336ft 579kts
17-Jan-18 16:03 33.145679 -81.403746 15 37339ft 579kts
17-Jan-18 16:04 33.294997 -81.330625 15 37340ft 579kts
17-Jan-18 16:05 33.443995 -81.257605 15 37334ft 580kts
17-Jan-18 16:06 33.593125 -81.184449 15 37330ft 581kts
17-Jan-18 16:07 33.742934 -81.110486 15 37326ft 582kts
17-Jan-18 16:08 33.888395 -81.022007 36 37333ft 605kts
17-Jan-18 16:09 34.011786 -80.883953 41 37341ft 606kts
17-Jan-18 16:10 34.130233 -80.754014 40 37336ft 606kts
17-Jan-18 16:11 34.256635 -80.615573 40 37334ft 607kts
17-Jan-18 16:12 34.381083 -80.478049 41 37330ft 607kts
17-Jan-18 16:13 34.505879 -80.339214 41 37318ft 607kts
17-Jan-18 16:14 34.630198 -80.200503 41 37308ft 608kts
17-Jan-18 16:15 34.754334 -80.061661 40 37299ft 607kts
17-Jan-18 16:16 34.878871 -79.922394 41 37306ft 604kts
17-Jan-18 16:17 35.002526 -79.783428 41 37303ft 607kts
17-Jan-18 16:18 35.126039 -79.643342 41 37295ft 605kts
17-Jan-18 16:19 35.260761 -79.525258 24 37302ft 592kts
17-Jan-18 16:20 35.398182 -79.429057 26 37296ft 594kts
17-Jan-18 16:21 35.540763 -79.325617 26 37293ft 594kts
17-Jan-18 16:22 35.682521 -79.221669 26 37304ft 594kts
17-Jan-18 16:23 35.824140 -79.117250 27 37316ft 593kts
17-Jan-18 16:24 35.965822 -79.012393 27 37325ft 592kts
17-Jan-18 16:25 36.106959 -78.908122 26 37329ft 592kts
17-Jan-18 16:26 36.248047 -78.803236 27 37329ft 592kts
17-Jan-18 16:27 36.389215 -78.697479 27 37331ft 591kts
17-Jan-18 16:28 36.529407 -78.591898 27 37340ft 588kts
17-Jan-18 16:29 36.663946 -78.490240 28 37344ft 588kts
17-Jan-18 16:30 36.803655 -78.385151 28 37345ft 584kts
17-Jan-18 16:31 36.941843 -78.279936 28 37346ft 581kts
17-Jan-18 16:32 37.079539 -78.174499 28 37359ft 581kts
17-Jan-18 16:33 37.216885 -78.068851 29 37363ft 576kts
17-Jan-18 16:34 37.354101 -77.963615 28 37370ft 580kts
17-Jan-18 16:35 37.468560 -77.874891 28 37376ft 581kts
17-Jan-18 16:36 37.625627 -77.740979 34 37377ft 586kts
17-Jan-18 16:37 37.757529 -77.620725 33 37383ft 585kts
17-Jan-18 16:38 37.867316 -77.520495 33 37387ft 584kts
17-Jan-18 16:39 37.999391 -77.399593 33 37398ft 584kts
17-Jan-18 16:40 38.146853 -77.264812 33 37387ft 584kts
17-Jan-18 16:41 38.256264 -77.163766 33 37391ft 583kts
17-Jan-18 16:42 38.387821 -77.041653 33 37386ft 585kts
17-Jan-18 16:43 38.541214 -76.899415 33 37386ft 584kts
17-Jan-18 16:44 38.650628 -76.796913 33 37380ft 584kts
17-Jan-18 16:45 38.755174 -76.639843 68 37379ft 586kts
17-Jan-18 16:46 38.831721 -76.454285 62 37376ft 592kts
17-Jan-18 16:47 38.911777 -76.270256 64 37373ft 589kts
17-Jan-18 16:48 39.013135 -76.109325 38 37380ft 581kts
17-Jan-18 16:49 39.123162 -75.967794 45 37357ft 583kts
17-Jan-18 16:50 39.238260 -75.819965 45 37345ft 583kts
17-Jan-18 16:51 39.352432 -75.671981 45 37339ft 581kts
17-Jan-18 16:52 39.466476 -75.524588 45 37343ft 578kts
17-Jan-18 16:53 39.579861 -75.376436 45 37341ft 579kts
17-Jan-18 16:54 39.691095 -75.225427 48 37336ft 580kts
17-Jan-18 16:55 39.799924 -75.071148 48 37339ft 579kts
17-Jan-18 16:56 39.909005 -74.915402 47 37307ft 584kts
17-Jan-18 16:57 40.018388 -74.759632 47 37304ft 582kts
17-Jan-18 16:58 40.127637 -74.602645 47 37295ft 585kts
17-Jan-18 16:59 40.222284 -74.431192 73 37284ft 584kts
17-Jan-18 17:00 40.269089 -74.238752 75 37283ft 583kts
17-Jan-18 17:01 40.321815 -74.038698 76 37277ft 581kts
17-Jan-18 17:02 40.374218 -73.837757 76 37261ft 581kts
17-Jan-18 17:03 40.425552 -73.636957 76 37247ft 581kts
17-Jan-18 17:04 40.476593 -73.435712 76 37231ft 581kts
17-Jan-18 17:05 40.527418 -73.233588 76 37221ft 581kts
17-Jan-18 17:06 40.578292 -73.032224 76 37220ft 581kts
17-Jan-18 17:07 40.629042 -72.830551 76 37209ft 581kts
17-Jan-18 17:08 40.678786 -72.627941 76 37200ft 580kts
17-Jan-18 17:09 40.728149 -72.425909 76 37191ft 579kts
17-Jan-18 17:10 40.774588 -72.232461 77 37189ft 579kts
17-Jan-18 17:11 40.823600 -72.029334 77 37186ft 580kts
17-Jan-18 17:12 40.871676 -71.826124 77 37184ft 581kts
17-Jan-18 17:13 40.919488 -71.622194 77 37182ft 582kts
17-Jan-18 17:14 40.967146 -71.416851 78 37174ft 584kts
17-Jan-18 17:15 41.015248 -71.211751 77 37171ft 584kts
17-Jan-18 17:16 41.062660 -71.006102 78 37164ft 585kts
17-Jan-18 17:17 41.110138 -70.799294 78 37161ft 585kts
17-Jan-18 17:18 41.156546 -70.592390 78 37155ft 586kts
17-Jan-18 17:19 41.200577 -70.395498 77 37153ft 587kts
17-Jan-18 17:20 41.246861 -70.187248 78 37150ft 587kts
17-Jan-18 17:21 41.304086 -69.984993 57 37131ft 588kts
17-Jan-18 17:22 41.422729 -69.840750 35 37151ft 578kts
17-Jan-18 17:23 41.542098 -69.696432 41 37144ft 580kts
17-Jan-18 17:24 41.659158 -69.548140 41 37139ft 580kts
17-Jan-18 17:25 41.776056 -69.398350 41 37137ft 580kts
17-Jan-18 17:26 41.892222 -69.248626 41 37132ft 580kts
17-Jan-18 17:27 42.008172 -69.098403 41 37126ft 579kts
17-Jan-18 17:28 42.124144 -68.947347 42 37124ft 579kts
17-Jan-18 17:29 42.239514 -68.796279 42 37121ft 578kts
17-Jan-18 17:30 42.354189 -68.645287 42 37117ft 576kts
17-Jan-18 17:31 42.464607 -68.499142 42 37114ft 570kts
17-Jan-18 17:32 42.577034 -68.349550 42 37111ft 564kts
17-Jan-18 17:33 42.688015 -68.201102 42 37104ft 559kts
17-Jan-18 17:34 42.798945 -68.051941 43 37103ft 558kts
17-Jan-18 17:35 42.909449 -67.902519 42 37093ft 564kts
17-Jan-18 17:36 43.020464 -67.751672 43 37085ft 564kts
17-Jan-18 17:37 43.132685 -67.598336 43 37082ft 569kts
17-Jan-18 17:38 43.244529 -67.444657 43 37063ft 574kts
17-Jan-18 17:39 43.357554 -67.288751 42 37069ft 576kts
17-Jan-18 17:40 43.470849 -67.131620 43 37074ft 578kts
17-Jan-18 17:41 43.583022 -66.972727 47 37077ft 581kts
17-Jan-18 17:42 43.680154 -66.805876 50 37079ft 583kts
17-Jan-18 17:43 43.782210 -66.630959 50 37078ft 583kts
17-Jan-18 17:44 43.885119 -66.457755 49 37076ft 584kts
17-Jan-18 17:45 43.987464 -66.282964 50 37075ft 584kts
17-Jan-18 17:46 44.089783 -66.106774 50 37077ft 585kts
17-Jan-18 17:47 44.191800 -65.930045 50 37080ft 586kts
17-Jan-18 17:48 44.293968 -65.751970 50 37085ft 587kts
17-Jan-18 17:49 44.395542 -65.573829 50 37088ft 588kts
17-Jan-18 17:50 44.497056 -65.394692 50 37090ft 588kts
17-Jan-18 17:51 44.598535 -65.214485 51 37094ft 587kts
17-Jan-18 17:52 44.694980 -65.042156 51 37100ft 587kts
17-Jan-18 17:53 44.795410 -64.861609 51 37106ft 586kts
17-Jan-18 17:54 44.895848 -64.679903 52 37117ft 586kts
17-Jan-18 17:55 44.995587 -64.498297 52 37120ft 586kts
17-Jan-18 17:56 45.095090 -64.315963 52 37131ft 586kts
17-Jan-18 17:57 45.194657 -64.132324 52 37130ft 586kts
17-Jan-18 17:58 45.293585 -63.948716 52 37130ft 586kts
17-Jan-18 17:59 45.392224 -63.764445 52 37131ft 587kts
17-Jan-18 18:00 45.490993 -63.578731 52 37134ft 587kts
17-Jan-18 18:01 45.589118 -63.392996 53 37136ft 587kts
17-Jan-18 18:02 45.682612 -63.214882 53 37142ft 588kts
17-Jan-18 18:03 45.780591 -63.027034 53 37143ft 588kts
17-Jan-18 18:04 45.878024 -62.838954 53 37150ft 588kts
17-Jan-18 18:05 45.975207 -62.650113 53 37157ft 589kts
17-Jan-18 18:06 46.072527 -62.459742 53 37160ft 589kts
17-Jan-18 18:07 46.169137 -62.269467 53 37167ft 589kts
17-Jan-18 18:08 46.265416 -62.078565 53 37183ft 589kts
17-Jan-18 18:09 46.361609 -61.886498 53 37195ft 588kts
17-Jan-18 18:10 46.457130 -61.694488 54 37205ft 588kts
17-Jan-18 18:11 46.548916 -61.508696 54 37217ft 587kts
17-Jan-18 18:12 46.643718 -61.315529 54 37222ft 587kts
17-Jan-18 18:13 46.738125 -61.121803 54 37238ft 586kts
17-Jan-18 18:14 46.832334 -60.927163 54 37243ft 586kts
17-Jan-18 18:15 46.925754 -60.732769 54 37252ft 585kts
17-Jan-18 18:16 47.018792 -60.537804 54 37258ft 585kts
17-Jan-18 18:17 47.111824 -60.341488 54 37262ft 585kts
17-Jan-18 18:18 47.204235 -60.145070 54 37272ft 585kts
17-Jan-18 18:19 47.296189 -59.948242 55 37276ft 585kts
17-Jan-18 18:20 47.387107 -59.752242 55 37276ft 585kts
17-Jan-18 18:21 47.475819 -59.559633 55 37276ft 585kts
17-Jan-18 18:22 47.567234 -59.359718 55 37283ft 585kts
17-Jan-18 18:23 47.658012 -59.159778 55 37282ft 585kts
17-Jan-18 18:24 47.748406 -58.959185 55 37289ft 585kts
17-Jan-18 18:25 47.838555 -58.757663 55 37298ft 584kts
17-Jan-18 18:26 47.927943 -58.556374 55 37316ft 582kts
17-Jan-18 18:27 48.016838 -58.354708 55 37326ft 582kts
17-Jan-18 18:28 48.105541 -58.151981 55 37332ft 581kts
17-Jan-18 18:29 48.193579 -57.949282 55 37333ft 581kts
17-Jan-18 18:30 48.277268 -57.755150 56 37333ft 581kts
17-Jan-18 18:31 48.364868 -57.550453 56 37334ft 581kts
17-Jan-18 18:32 48.451695 -57.346021 56 37335ft 581kts
17-Jan-18 18:33 48.538237 -57.140683 56 37335ft 581kts
17-Jan-18 18:34 48.624748 -56.933849 56 37332ft 581kts
17-Jan-18 18:35 48.710673 -56.726816 56 37330ft 582kts
17-Jan-18 18:36 48.796408 -56.518649 56 37332ft 584kts
17-Jan-18 18:37 48.882241 -56.308607 57 37330ft 584kts
17-Jan-18 18:38 48.967307 -56.098809 57 37330ft 583kts
17-Jan-18 18:39 49.051889 -55.888531 57 37326ft 581kts
17-Jan-18 18:40 49.136077 -55.677569 57 37326ft 580kts
17-Jan-18 18:41 49.216323 -55.474901 58 37328ft 579kts
17-Jan-18 18:42 49.299450 -55.263338 58 37323ft 578kts
17-Jan-18 18:43 49.381958 -55.051619 58 37329ft 579kts
17-Jan-18 18:44 49.464040 -54.839307 58 37321ft 578kts
17-Jan-18 18:45 49.546095 -54.625322 58 37332ft 580kts
17-Jan-18 18:46 49.613997 -54.446926 58 37330ft 580kts
17-Jan-18 18:47 49.708521 -54.196563 58 37331ft 580kts
17-Jan-18 18:48 49.776066 -54.016136 59 37330ft 579kts
17-Jan-18 18:49 49.869516 -53.764476 59 37329ft 579kts
17-Jan-18 18:50 49.945980 -53.556711 59 37328ft 579kts
17-Jan-18 18:51 50.012309 -53.375143 59 37328ft 578kts
17-Jan-18 18:52 50.104370 -53.120997 59 37335ft 578kts
17-Jan-18 18:53 50.169686 -52.939172 59 37330ft 576kts
17-Jan-18 18:54 50.247912 -52.719703 59 37337ft 577kts
17-Jan-18 18:55 50.338343 -52.463694 60 37334ft 576kts
17-Jan-18 18:56 50.415715 -52.244063 60 37335ft 577kts
17-Jan-18 18:57 50.479573 -52.059037 60 37327ft 576kts
17-Jan-18 18:58 50.542931 -51.827649 71 37326ft 580kts
17-Jan-18 18:59 50.597493 -51.589646 70 37321ft 579kts
17-Jan-18 19:00 50.654333 -51.352147 69 37303ft 576kts
17-Jan-18 19:01 50.709760 -51.120435 69 37303ft 576kts
17-Jan-18 19:02 50.765256 -50.882266 70 37305ft 578kts
17-Jan-18 19:03 50.820186 -50.643755 70 37305ft 578kts
17-Jan-18 19:04 50.874676 -50.404546 70 37307ft 579kts
17-Jan-18 19:05 50.928898 -50.163763 71 37308ft 579kts
17-Jan-18 19:06 50.982472 -49.923082 71 37308ft 579kts
17-Jan-18 19:07 51.035539 -49.681906 71 37307ft 579kts
17-Jan-18 19:08 51.088324 -49.439191 71 37308ft 580kts
17-Jan-18 19:09 51.140481 -49.196510 71 37308ft 580kts
17-Jan-18 19:10 51.192163 -48.953141 72 37308ft 580kts
17-Jan-18 19:11 51.243475 -48.708578 72 37305ft 581kts
17-Jan-18 19:12 51.293200 -48.468700 72 37301ft 583kts
17-Jan-18 19:13 51.343688 -48.222131 72 37299ft 585kts
17-Jan-18 19:14 51.393895 -47.973856 73 37299ft 585kts
17-Jan-18 19:15 51.443495 -47.725425 73 37296ft 586kts
17-Jan-18 19:16 51.492582 -47.476401 73 37291ft 587kts
17-Jan-18 19:17 51.541280 -47.226111 73 37283ft 586kts
17-Jan-18 19:18 51.589328 -46.975919 73 37281ft 587kts
17-Jan-18 19:19 51.636870 -46.725044 74 37279ft 588kts
17-Jan-18 19:20 51.684038 -46.472770 74 37268ft 586kts
17-Jan-18 19:21 51.729419 -46.226784 74 37264ft 587kts
17-Jan-18 19:22 51.775558 -45.973279 74 37262ft 589kts
17-Jan-18 19:23 51.821139 -45.719297 74 37253ft 588kts
17-Jan-18 19:24 51.866100 -45.465226 75 37253ft 589kts
17-Jan-18 19:25 51.910671 -45.209732 75 37252ft 589kts
17-Jan-18 19:26 51.954540 -44.954592 75 37244ft 588kts
17-Jan-18 19:27 51.997888 -44.698793 75 37234ft 589kts
17-Jan-18 19:28 52.040806 -44.441717 76 37231ft 589kts
17-Jan-18 19:29 52.083062 -44.184861 76 37229ft 589kts
17-Jan-18 19:30 52.124868 -43.926691 76 37224ft 590kts
17-Jan-18 19:31 52.165359 -43.672820 76 37220ft 593kts
17-Jan-18 19:32 52.206223 -43.412633 76 37219ft 595kts
17-Jan-18 19:33 52.246728 -43.150591 77 37216ft 594kts
17-Jan-18 19:34 52.286252 -42.890677 77 37214ft 594kts
17-Jan-18 19:35 52.325735 -42.626722 77 37208ft 595kts
17-Jan-18 19:36 52.364585 -42.362621 78 37206ft 596kts
17-Jan-18 19:37 52.402766 -42.098641 78 37199ft 596kts
17-Jan-18 19:38 52.440314 -41.834489 78 37196ft 596kts
17-Jan-18 19:39 52.477400 -41.569002 78 37193ft 596kts
17-Jan-18 19:40 52.513799 -41.303695 78 37195ft 597kts
17-Jan-18 19:41 52.548720 -41.044582 79 37192ft 597kts
17-Jan-18 19:42 52.584048 -40.777672 79 37182ft 596kts
17-Jan-18 19:43 52.618615 -40.511527 79 37182ft 596kts
17-Jan-18 19:44 52.652756 -40.243588 79 37179ft 597kts
17-Jan-18 19:45 52.686241 -39.975658 79 37169ft 598kts
17-Jan-18 19:46 52.719180 -39.706895 79 37163ft 599kts
17-Jan-18 19:47 52.751636 -39.436713 80 37161ft 599kts
17-Jan-18 19:48 52.783365 -39.167040 80 37162ft 599kts
17-Jan-18 19:49 52.814586 -38.896035 80 37162ft 599kts
17-Jan-18 19:50 52.844411 -38.631607 80 37151ft 598kts
17-Jan-18 19:51 52.874279 -38.361073 81 37156ft 599kts
17-Jan-18 19:52 52.903638 -38.089185 81 37155ft 598kts
17-Jan-18 19:53 52.932229 -37.818289 81 37147ft 597kts
17-Jan-18 19:54 52.960237 -37.546750 81 37138ft 596kts
17-Jan-18 19:55 52.987612 -37.274823 81 37128ft 601kts
17-Jan-18 19:56 53.014530 -37.001157 82 37126ft 601kts
17-Jan-18 19:57 53.040870 -36.726495 82 37122ft 601kts
17-Jan-18 19:58 53.066478 -36.452549 82 37119ft 600kts
17-Jan-18 19:59 53.090687 -36.186797 82 37106ft 598kts
17-Jan-18 20:00 53.115033 -35.912512 83 37104ft 598kts
17-Jan-18 20:01 53.138666 -35.638829 83 37098ft 597kts
17-Jan-18 20:02 53.161640 -35.365235 83 37091ft 597kts
17-Jan-18 20:03 53.184055 -35.090489 84 37089ft 597kts
17-Jan-18 20:04 53.205824 -34.815616 84 37092ft 599kts
17-Jan-18 20:05 53.226934 -34.540832 84 37072ft 597kts
17-Jan-18 20:06 53.247449 -34.265248 84 37080ft 598kts
17-Jan-18 20:07 53.267279 -33.990121 85 37067ft 597kts
17-Jan-18 20:08 53.285852 -33.723808 85 37063ft 597kts
17-Jan-18 20:09 53.304475 -33.447569 85 37062ft 597kts
17-Jan-18 20:10 53.322409 -33.171910 85 37058ft 596kts
17-Jan-18 20:11 53.339682 -32.896376 85 37052ft 596kts
17-Jan-18 20:12 53.356379 -32.619671 86 37049ft 596kts
17-Jan-18 20:13 53.372396 -32.343415 86 37038ft 597kts
17-Jan-18 20:14 53.387777 -32.066926 86 37032ft 597kts
17-Jan-18 20:15 53.402552 -31.789563 86 37027ft 596kts
17-Jan-18 20:16 53.416648 -31.512779 87 37026ft 597kts
17-Jan-18 20:17 53.430107 -31.235725 87 37025ft 597kts
17-Jan-18 20:18 53.442975 -30.957426 87 37022ft 597kts
17-Jan-18 20:19 53.455148 -30.680046 88 37016ft 597kts
17-Jan-18 20:20 53.466354 -30.410484 88 37010ft 596kts
17-Jan-18 20:21 53.477291 -30.132101 88 37008ft 596kts
17-Jan-18 20:22 53.487518 -29.855216 88 36973ft 594kts
17-Jan-18 20:23 53.497071 -29.579133 89 36951ft 592kts
17-Jan-18 20:24 53.506002 -29.302548 89 36943ft 591kts
17-Jan-18 20:25 53.514267 -29.026913 89 36944ft 591kts
17-Jan-18 20:26 53.521906 -28.750897 90 36953ft 593kts
17-Jan-18 20:27 53.528968 -28.472672 90 36959ft 596kts
17-Jan-18 20:28 53.535369 -28.193837 90 36953ft 598kts
17-Jan-18 20:29 53.541134 -27.914843 91 36950ft 598kts
17-Jan-18 20:30 53.546111 -27.643768 91 36950ft 596kts
17-Jan-18 20:31 53.550573 -27.365072 91 36940ft 593kts
17-Jan-18 20:32 53.554378 -27.089020 90 36926ft 589kts
17-Jan-18 20:33 53.557537 -26.814667 91 36915ft 586kts
17-Jan-18 20:34 53.560065 -26.539929 91 36915ft 587kts
17-Jan-18 20:35 53.561950 -26.265533 91 36923ft 588kts
17-Jan-18 20:36 53.563217 -25.990021 91 36935ft 591kts
17-Jan-18 20:37 53.563848 -25.712749 92 36942ft 592kts
17-Jan-18 20:38 53.563841 -25.436080 92 36941ft 592kts
17-Jan-18 20:39 53.563196 -25.159435 92 36937ft 592kts
17-Jan-18 20:40 53.561955 -24.890881 92 36927ft 591kts
17-Jan-18 20:41 53.560057 -24.614424 93 36909ft 589kts
17-Jan-18 20:42 53.557540 -24.339956 93 36889ft 586kts
17-Jan-18 20:43 53.554402 -24.066226 93 36886ft 586kts
17-Jan-18 20:44 53.550625 -23.791429 93 36894ft 587kts
17-Jan-18 20:45 53.546210 -23.516554 93 36900ft 590kts
17-Jan-18 20:46 53.541150 -23.240723 94 36903ft 592kts
17-Jan-18 20:47 53.535424 -22.963596 94 36901ft 592kts
17-Jan-18 20:48 53.529080 -22.687397 94 36900ft 592kts
17-Jan-18 20:49 53.522106 -22.411727 94 36891ft 591kts
17-Jan-18 20:50 53.514748 -22.144730 95 36879ft 589kts
17-Jan-18 20:51 53.506548 -21.869702 95 36864ft 587kts
17-Jan-18 20:52 53.497769 -21.596391 95 36854ft 586kts
17-Jan-18 20:53 53.488374 -21.323468 95 36852ft 586kts
17-Jan-18 20:54 53.478318 -21.049514 96 36861ft 587kts
17-Jan-18 20:55 53.467621 -20.775369 96 36867ft 590kts
17-Jan-18 20:56 53.456244 -20.500188 97 36867ft 593kts
17-Jan-18 20:57 53.444168 -20.223688 97 36862ft 594kts
17-Jan-18 20:58 53.431622 -19.950854 97 36869ft 594kts
17-Jan-18 20:59 53.418576 -19.680669 97 36856ft 592kts
17-Jan-18 21:00 53.404643 -19.405227 98 36846ft 591kts
17-Jan-18 21:01 53.390172 -19.131728 98 36836ft 589kts
17-Jan-18 21:02 53.375094 -18.858728 98 36830ft 589kts
17-Jan-18 21:03 53.359333 -18.584935 98 36816ft 591kts
17-Jan-18 21:04 53.342956 -18.311469 99 36818ft 592kts
17-Jan-18 21:05 53.325915 -18.037600 99 36821ft 593kts
17-Jan-18 21:06 53.311204 -17.809069 99 36820ft 594kts
17-Jan-18 21:07 53.292887 -17.533605 99 36827ft 595kts
17-Jan-18 21:08 53.273970 -17.258978 100 36825ft 595kts
17-Jan-18 21:09 53.251071 -16.938496 100 36821ft 596kts
17-Jan-18 21:10 53.234859 -16.718766 100 36815ft 596kts
17-Jan-18 21:11 53.210578 -16.399580 100 36801ft 594kts
17-Jan-18 21:12 53.192729 -16.171966 101 36795ft 594kts
17-Jan-18 21:13 53.170658 -15.898220 101 36782ft 594kts
17-Jan-18 21:14 53.148050 -15.625681 101 36775ft 595kts
17-Jan-18 21:15 53.124786 -15.353015 101 36776ft 596kts
17-Jan-18 21:16 53.100794 -15.079422 102 36767ft 596kts
17-Jan-18 21:17 53.076278 -14.807127 102 36783ft 598kts
17-Jan-18 21:18 53.051035 -14.533837 103 36787ft 599kts
17-Jan-18 21:19 53.025546 -14.259829 103 36786ft 598kts
17-Jan-18 21:20 52.999338 -13.995830 105 36783ft 597kts
17-Jan-18 21:21 52.956736 -13.731173 112 36768ft 594kts
17-Jan-18 21:22 52.912179 -13.466966 111 36754ft 594kts
17-Jan-18 21:23 52.869836 -13.201965 110 36744ft 596kts
17-Jan-18 21:24 52.825836 -12.936957 111 36739ft 596kts
17-Jan-18 21:25 52.781090 -12.673518 111 36738ft 596kts
17-Jan-18 21:26 52.735817 -12.410817 112 36734ft 595kts
17-Jan-18 21:27 52.689831 -12.147920 112 36747ft 595kts
17-Jan-18 21:28 52.643435 -11.886507 112 36744ft 595kts
17-Jan-18 21:29 52.596458 -11.625645 112 36740ft 595kts
17-Jan-18 21:30 52.551126 -11.377436 112 36722ft 594kts
17-Jan-18 21:31 52.503195 -11.118523 112 36690ft 593kts
17-Jan-18 21:32 52.454731 -10.860273 113 36682ft 593kts
17-Jan-18 21:33 52.405582 -10.602001 113 36674ft 592kts
17-Jan-18 21:34 52.356092 -10.345449 113 36675ft 591kts
17-Jan-18 21:35 52.306151 -10.089977 113 36681ft 590kts
17-Jan-18 21:36 52.255539 -9.834454 113 36682ft 590kts
17-Jan-18 21:37 52.204590 -9.580622 114 36685ft 589kts
17-Jan-18 21:38 52.153173 -9.327719 114 36683ft 588kts
17-Jan-18 21:39 52.101078 -9.074713 114 36674ft 588kts
17-Jan-18 21:40 52.053509 -8.846454 114 36658ft 587kts
17-Jan-18 21:41 52.000652 -8.595841 115 36649ft 587kts
17-Jan-18 21:42 51.947162 -8.345299 115 36648ft 586kts
17-Jan-18 21:43 51.893367 -8.096395 115 36651ft 586kts
17-Jan-18 21:44 51.839080 -7.848170 116 36675ft 585kts
17-Jan-18 21:45 51.784133 -7.599936 116 36670ft 585kts
17-Jan-18 21:46 51.728868 -7.353062 116 36638ft 586kts
17-Jan-18 21:47 51.673290 -7.105765 116 36632ft 585kts
17-Jan-18 21:48 51.617097 -6.860297 113 36655ft 586kts
17-Jan-18 21:49 51.587709 -6.674561 105 36676ft 588kts
17-Jan-18 21:50 51.587709 -6.674561 105 36676ft 588kts
17-Jan-18 21:51 51.563557 -6.499012 106 36667ft 588kts
17-Jan-18 21:52 51.525701 -6.243975 106 36666ft 587kts
17-Jan-18 21:53 51.487963 -5.988384 106 36664ft 587kts
17-Jan-18 21:54 51.448999 -5.734674 106 36644ft 587kts
17-Jan-18 21:55 51.427742 -5.597771 106 36634ft 586kts
17-Jan-18 22:00 51.029877 -4.375419 135 36594ft 575kts
17-Jan-18 22:01 50.940261 -4.192684 136 36589ft 574kts
17-Jan-18 22:02 50.842993 -3.990958 130 36586ft 579kts
17-Jan-18 22:03 50.788816 -3.750613 106 36589ft 586kts
17-Jan-18 22:04 50.738926 -3.505864 112 36583ft 586kts
17-Jan-18 22:05 50.688211 -3.262455 112 35866ft 574kts
17-Jan-18 22:06 50.637886 -3.019116 103 32117ft 592kts
17-Jan-18 22:07 50.649139 -2.779082 63 30086ft 542kts
17-Jan-18 22:08 50.677524 -2.541905 80 27532ft 545kts
17-Jan-18 22:09 50.673582 -2.303905 93 26645ft 545kts
17-Jan-18 22:10 50.662661 -2.066581 92 26027ft 538kts
17-Jan-18 22:11 50.663213 -1.835856 84 23845ft 516kts
17-Jan-18 22:12 50.665289 -1.635600 86 22194ft 500kts
17-Jan-18 22:13 50.664596 -1.420343 87 20103ft 482kts
17-Jan-18 22:14 50.689378 -1.221285 62 18392ft 438kts
17-Jan-18 22:15 50.734753 -1.057275 60 17893ft 389kts
17-Jan-18 22:16 50.774327 -0.901363 62 16518ft 378kts
17-Jan-18 22:17 50.810896 -0.746904 71 15099ft 376kts
17-Jan-18 22:18 50.830494 -0.585700 76 13734ft 370kts
17-Jan-18 22:19 50.848945 -0.431584 77 11827ft 341kts
17-Jan-18 22:20 50.864928 -0.288723 79 9994ft 319kts
17-Jan-18 22:21 50.880418 -0.149757 80 8127ft 322kts
17-Jan-18 22:22 50.911880 -0.029992 29 6186ft 270kts
17-Jan-18 22:23 50.977105 -0.003123 1 4653ft 236kts
17-Jan-18 22:24 51.041487 0.007720 1 3276ft 225kts
17-Jan-18 22:25 51.101521 0.015922 2 2217ft 204kts
17-Jan-18 22:26 51.149829 0.021777 4 1968ft 162kts
17-Jan-18 22:27 51.171740 -0.017556 272 2111ft 130kts
17-Jan-18 22:28 51.165068 -0.068854 270 1458ft 115kts
17-Jan-18 22:29 51.157637 -0.121110 266 982ft 123kts
17-Jan-18 22:30 51.150581 -0.171844 256 261ft 114kts
17-Jan-18 22:31 51.147096 -0.197291 258 210ft 27kts
17-Jan-18 22:32 51.147639 -0.204921 281 210ft 11kts
17-Jan-18 22:33 51.149023 -0.203266 77 210ft 14kts
17-Jan-18 22:34 51.149834 -0.197287 75 210ft 17kts
17-Jan-18 22:35 51.150746 -0.190618 77 210ft 13kts
17-Jan-18 22:36 51.151494 -0.185272 78 210ft 15kts
17-Jan-18 22:37 51.152515 -0.181122 353 210ft 8kts
17-Jan-18 22:38 51.155206 -0.181734 22 210ft 10kts
17-Jan-18 22:39 51.155315 -0.179902 122 210ft 0kts
17-Jan-18 22:40 51.155315 -0.179902 122 210ft 0kts
17-Jan-18 22:41 51.155315 -0.179902 122 210ft 0kts
17-Jan-18 22:42 51.155315 -0.179902 122 210ft 0kts
17-Jan-18 22:43 51.155315 -0.179902 122 210ft 0kts

Navigation Log

Ident Type
Flight plan parsing failed, navigation log unavailable